Time;durP1;ratioP1;P1;durP2;ratioP2;P2;SDS_P1;SDS_P2;PMS_P1;PMS_P2;Temp;Humidity;BMP_temperature;BMP_pressure;BME280_temperature;BME280_humidity;BME280_pressure;Samples;Min_cycle;Max_cycle;Signal;HPM_P1;HPM_P2
2022/04/05 00:01:54;;;;;;;59.08;25.10;;;;;;;8.54;100.00;100514.94;5111775;28;20032;-81
2022/04/05 00:04:19;;;;;;;58.35;23.50;;;;;;;8.56;100.00;100522.69;5112146;28;20034;-80
2022/04/05 00:06:45;;;;;;;61.72;24.45;;;;;;;8.56;100.00;100515.72;5112269;28;20051;-80
2022/04/05 00:09:10;;;;;;;59.33;23.98;;;;;;;8.55;100.00;100518.38;5111677;28;20098;-81
2022/04/05 00:11:35;;;;;;;57.63;22.52;;;;;;;8.52;100.00;100519.28;5112395;28;20023;-81
2022/04/05 00:14:01;;;;;;;61.72;22.45;;;;;;;8.51;100.00;100517.59;5112419;28;20023;-80
2022/04/05 00:16:26;;;;;;;59.20;22.85;;;;;;;8.51;100.00;100527.13;5111605;27;20024;-80
2022/04/05 00:18:51;;;;;;;58.38;22.08;;;;;;;8.51;100.00;100512.38;5112021;27;20498;-80
2022/04/05 00:21:16;;;;;;;63.85;22.35;;;;;;;8.51;100.00;100519.34;5112272;28;20095;-80
2022/04/05 00:23:42;;;;;;;55.72;21.63;;;;;;;8.50;100.00;100521.09;5111510;28;20052;-80
2022/04/05 00:26:07;;;;;;;55.15;22.33;;;;;;;8.51;100.00;100530.56;5112429;28;20030;-80
2022/04/05 00:28:32;;;;;;;52.28;21.27;;;;;;;8.54;100.00;100527.06;5111858;28;20486;-81
2022/04/05 00:30:58;;;;;;;63.53;22.35;;;;;;;8.50;100.00;100522.78;5110718;28;20023;-81
2022/04/05 00:33:23;;;;;;;58.15;22.80;;;;;;;8.49;100.00;100529.75;5111384;28;20479;-80
2022/04/05 00:35:49;;;;;;;61.80;22.75;;;;;;;8.49;100.00;100523.69;5111722;28;20031;-80
2022/04/05 00:38:14;;;;;;;66.85;23.33;;;;;;;8.50;100.00;100522.78;5110669;28;20463;-80
2022/04/05 00:40:39;;;;;;;60.47;22.65;;;;;;;8.49;100.00;100523.69;5111562;28;20035;-80
2022/04/05 00:43:05;;;;;;;54.45;23.02;;;;;;;8.49;100.00;100515.91;5111907;28;20032;-81
2022/04/05 00:45:32;;;;;;;63.72;22.50;;;;;;;8.48;100.00;100524.59;5110904;28;20027;-81
2022/04/05 00:47:59;;;;;;;57.28;22.33;;;;;;;8.48;100.00;100520.25;5111862;28;20031;-81
2022/04/05 00:50:26;;;;;;;60.15;22.30;;;;;;;8.51;100.00;100527.97;5111317;28;20036;-80
2022/04/05 00:52:51;;;;;;;57.55;21.35;;;;;;;8.48;100.00;100515.06;5111070;28;20024;-80
2022/04/05 00:55:22;;;;;;;61.47;22.85;;;;;;;8.48;100.00;100525.44;5112077;28;20046;-81
2022/04/05 00:57:50;;;;;;;64.80;23.35;;;;;;;8.49;100.00;100531.47;5110344;28;20439;-81
2022/04/05 01:00:16;;;;;;;66.68;23.05;;;;;;;8.45;100.00;100535.88;5111795;28;20043;-80
2022/04/05 01:02:43;;;;;;;55.47;22.60;;;;;;;8.46;100.00;100516.81;5111490;28;20028;-80
2022/04/05 01:05:09;;;;;;;66.57;23.05;;;;;;;8.47;100.00;100523.75;5111107;28;20027;-80
2022/04/05 01:07:39;;;;;;;62.40;22.58;;;;;;;8.46;100.00;100523.75;5111539;28;20023;-80
2022/04/05 01:10:06;;;;;;;66.88;24.15;;;;;;;8.47;100.00;100521.13;5112004;28;20031;-80
2022/04/05 01:12:32;;;;;;;69.38;24.33;;;;;;;8.45;100.00;100522.91;5110386;28;20023;-80
2022/04/05 01:14:59;;;;;;;74.47;24.85;;;;;;;8.43;100.00;100522.06;5111400;28;20042;-80
2022/04/05 01:17:25;;;;;;;69.28;25.70;;;;;;;8.43;100.00;100530.72;5111327;28;20027;-80
2022/04/05 01:19:51;;;;;;;65.45;27.10;;;;;;;8.45;100.00;100533.28;5110508;28;20475;-81
2022/04/05 01:22:16;;;;;;;67.22;24.65;;;;;;;8.44;100.00;100524.66;5115979;28;20020;-80
2022/04/05 01:24:42;;;;;;;61.33;22.35;;;;;;;8.45;100.00;100538.50;5104528;28;20032;-80
2022/04/05 01:27:07;;;;;;;60.60;24.15;;;;;;;8.43;100.00;100540.25;5090727;28;20539;-80
2022/04/05 01:29:34;;;;;;;67.70;22.92;;;;;;;8.42;100.00;100541.16;5100510;28;20098;-80
2022/04/05 01:32:09;;;;;;;65.00;24.35;;;;;;;8.38;100.00;100532.56;5098640;28;20020;-80
2022/04/05 01:34:36;;;;;;;54.80;23.10;;;;;;;8.41;100.00;100542.03;5091269;28;20099;-80
2022/04/05 01:37:05;;;;;;;67.97;23.30;;;;;;;8.38;100.00;100542.09;5091571;28;20028;-80
2022/04/05 01:39:33;;;;;;;67.03;22.98;;;;;;;8.40;100.00;100535.09;5096983;28;20715;-80
2022/04/05 01:42:02;;;;;;;70.38;24.23;;;;;;;8.35;100.00;100537.78;5104378;28;20032;-80
2022/04/05 01:44:29;;;;;;;66.30;23.98;;;;;;;8.37;100.00;100538.63;5090927;28;20054;-81
2022/04/05 01:46:54;;;;;;;64.22;23.15;;;;;;;8.38;100.00;100542.94;5104676;28;20024;-81
2022/04/05 01:49:20;;;;;;;53.95;22.63;;;;;;;8.38;100.00;100539.50;5104116;28;20377;-81
2022/04/05 01:51:46;;;;;;;61.38;21.25;;;;;;;8.36;100.00;100541.22;5095966;28;20036;-80
2022/04/05 01:54:13;;;;;;;55.10;21.02;;;;;;;8.37;100.00;100541.22;5094057;28;20031;-80
2022/04/05 01:56:47;;;;;;;58.40;21.02;;;;;;;8.36;100.00;100542.06;5094903;28;20029;-80
2022/04/05 01:59:15;;;;;;;59.65;20.33;;;;;;;8.36;100.00;100538.63;5094809;28;20067;-80
2022/04/05 02:01:41;;;;;;;55.08;20.13;;;;;;;8.36;100.00;100536.03;5110109;28;20035;-80
2022/04/05 02:04:08;;;;;;;55.50;20.30;;;;;;;8.36;100.00;100544.66;5115266;28;20019;-80
2022/04/05 02:06:33;;;;;;;60.58;19.60;;;;;;;8.36;100.00;100538.63;5104780;28;20032;-79
2022/04/05 02:08:58;;;;;;;55.88;21.63;;;;;;;8.36;100.00;100538.63;5111733;28;20039;-79
2022/04/05 02:11:24;;;;;;;58.72;20.77;;;;;;;8.34;100.00;100545.63;5113845;28;20031;-79
2022/04/05 02:13:49;;;;;;;59.70;20.27;;;;;;;8.34;100.00;100545.63;5114884;28;20032;-79
2022/04/05 02:16:15;;;;;;;58.92;20.55;;;;;;;8.33;100.00;100539.53;5113685;28;20077;-80
2022/04/05 02:18:44;;;;;;;56.10;19.75;;;;;;;8.31;100.00;100540.47;5114515;28;20122;-80
2022/04/05 02:21:10;;;;;;;52.20;21.20;;;;;;;8.35;100.00;100544.72;5114027;27;20024;-80
2022/04/05 02:23:35;;;;;;;59.00;20.42;;;;;;;8.34;100.00;100541.28;5113775;28;20532;-80
2022/04/05 02:26:01;;;;;;;56.33;20.40;;;;;;;8.34;100.00;100554.25;5114473;28;20035;-80
2022/04/05 02:28:26;;;;;;;54.55;20.55;;;;;;;8.32;100.00;100547.38;5111984;28;20449;-80
2022/04/05 02:30:52;;;;;;;59.42;21.02;;;;;;;8.34;100.00;100541.28;5111384;28;20097;-80
2022/04/05 02:33:17;;;;;;;56.47;21.00;;;;;;;8.31;100.00;100543.06;5113947;28;20027;-80
2022/04/05 02:35:43;;;;;;;56.28;21.80;;;;;;;8.33;100.00;100544.72;5113790;28;20028;-80
2022/04/05 02:38:10;;;;;;;60.42;22.77;;;;;;;8.34;100.00;100540.41;5113959;28;20031;-80
2022/04/05 02:40:35;;;;;;;62.63;21.85;;;;;;;8.33;100.00;100546.47;5114422;28;20126;-80
2022/04/05 02:43:02;;;;;;;56.75;21.85;;;;;;;8.34;100.00;100551.66;5114029;27;20427;-80
2022/04/05 02:45:27;;;;;;;53.33;21.90;;;;;;;8.33;100.00;100541.28;5113076;28;20036;-80
2022/04/05 02:47:52;;;;;;;61.88;22.08;;;;;;;8.33;100.00;100549.06;5113509;28;20383;-80
2022/04/05 02:50:18;;;;;;;58.35;22.98;;;;;;;8.34;100.00;100550.81;5112797;28;20510;-80
2022/04/05 02:52:48;;;;;;;63.28;23.75;;;;;;;8.31;100.00;100537.88;5113626;28;20050;-80
2022/04/05 02:55:15;;;;;;;63.60;22.60;;;;;;;8.30;100.00;100536.13;5114056;28;20044;-80
2022/04/05 02:57:42;;;;;;;56.50;21.65;;;;;;;8.34;100.00;100543.00;5113010;28;20531;-80
2022/04/05 03:00:08;;;;;;;60.67;23.52;;;;;;;8.32;100.00;100542.19;5112764;27;20092;-80
2022/04/05 03:02:34;;;;;;;61.60;22.88;;;;;;;8.31;100.00;100540.47;5113314;28;20039;-80
2022/04/05 03:05:05;;;;;;;68.10;22.60;;;;;;;8.30;100.00;100543.94;5112606;28;20046;-80
2022/04/05 03:07:30;;;;;;;61.22;22.42;;;;;;;8.31;100.00;100538.72;5113309;28;20788;-80
2022/04/05 03:09:55;;;;;;;59.58;22.63;;;;;;;8.31;100.00;100540.47;5113797;28;20032;-80
2022/04/05 03:12:21;;;;;;;61.05;23.58;;;;;;;8.27;100.00;100533.59;5112814;28;20024;-80
2022/04/05 03:14:46;;;;;;;67.10;23.42;;;;;;;8.31;100.00;100543.06;5113549;28;20032;-80
2022/04/05 03:17:12;;;;;;;58.65;21.90;;;;;;;8.30;100.00;100543.94;5113087;28;20475;-80
2022/04/05 03:19:37;;;;;;;69.85;22.58;;;;;;;8.31;100.00;100545.66;5112185;28;20440;-80
2022/04/05 03:22:05;;;;;;;65.40;21.45;;;;;;;8.31;100.00;100545.66;5113498;28;20039;-80
2022/04/05 03:24:31;;;;;;;59.58;22.42;;;;;;;8.30;100.00;100544.78;5113330;28;20034;-80
2022/04/05 03:26:57;;;;;;;60.22;22.13;;;;;;;8.28;100.00;100543.13;5112354;28;20518;-80
2022/04/05 03:29:22;;;;;;;51.33;20.98;;;;;;;8.29;100.00;100553.47;5113032;28;20059;-80
2022/04/05 03:31:48;;;;;;;62.63;22.40;;;;;;;8.27;100.00;100538.78;5112713;28;20114;-80
2022/04/05 03:34:14;;;;;;;54.65;20.60;;;;;;;8.27;100.00;100542.25;5112335;28;20031;-80
2022/04/05 03:36:41;;;;;;;56.47;21.30;;;;;;;8.27;100.00;100542.25;5112898;28;20493;-80
2022/04/05 03:39:06;;;;;;;60.80;20.95;;;;;;;8.27;100.00;100547.44;5113636;28;20031;-80
2022/04/05 03:41:32;;;;;;;57.25;22.10;;;;;;;8.26;100.00;100542.28;5112124;28;20019;-80
2022/04/05 03:43:58;;;;;;;61.85;21.67;;;;;;;8.24;100.00;100533.66;5113106;28;20106;-80
2022/04/05 03:46:23;;;;;;;58.00;21.73;;;;;;;8.26;100.00;100548.34;5112896;28;20026;-80
2022/04/05 03:48:49;;;;;;;60.72;21.65;;;;;;;8.26;100.00;100540.53;5111986;28;20043;-80
2022/04/05 03:51:14;;;;;;;59.42;20.02;;;;;;;8.25;100.00;100540.59;5112947;28;20476;-80
2022/04/05 03:53:39;;;;;;;60.60;21.33;;;;;;;8.23;100.00;100534.56;5112222;28;20116;-80
2022/04/05 03:56:05;;;;;;;61.80;20.55;;;;;;;8.25;100.00;100543.19;5113208;28;20224;-80
2022/04/05 03:58:30;;;;;;;56.05;20.60;;;;;;;8.24;100.00;100536.25;5112552;28;20127;-80
2022/04/05 04:00:55;;;;;;;56.58;21.58;;;;;;;8.23;100.00;100540.59;5112095;28;20397;-80
2022/04/05 04:03:20;;;;;;;60.10;20.17;;;;;;;8.20;100.00;100540.66;5112605;28;20046;-80
2022/04/05 04:05:46;;;;;;;55.22;19.95;;;;;;;8.17;100.00;100531.19;5112760;28;20023;-80
2022/04/05 04:08:11;;;;;;;49.92;19.95;;;;;;;8.21;100.00;100540.63;5112064;28;20379;-80
2022/04/05 04:10:36;;;;;;;57.28;20.30;;;;;;;8.21;100.00;100543.25;5112667;28;20035;-80
2022/04/05 04:13:01;;;;;;;59.20;20.38;;;;;;;8.23;100.00;100539.75;5112036;28;20032;-80
2022/04/05 04:15:27;;;;;;;53.60;19.95;;;;;;;8.15;100.00;100524.31;5111633;28;20031;-80
2022/04/05 04:17:52;;;;;;;53.30;19.35;;;;;;;8.21;100.00;100532.00;5112377;28;20035;-81
2022/04/05 04:20:17;;;;;;;49.25;20.05;;;;;;;8.21;100.00;100542.38;5112580;28;20027;-80
2022/04/05 04:22:42;;;;;;;46.22;18.50;;;;;;;8.23;100.00;100537.16;5111552;28;20028;-80
2022/04/05 04:25:08;;;;;;;53.58;19.60;;;;;;;8.21;100.00;100532.00;5112537;28;20055;-80
2022/04/05 04:27:34;;;;;;;56.75;19.92;;;;;;;8.21;100.00;100538.03;5115869;27;20047;-80
2022/04/05 04:30:00;;;;;;;55.92;19.88;;;;;;;8.19;100.00;100537.19;5120378;27;20405;-80
2022/04/05 04:32:25;;;;;;;58.08;20.45;;;;;;;8.21;100.00;100540.63;5111964;28;20506;-80
2022/04/05 04:34:51;;;;;;;54.85;20.50;;;;;;;8.18;100.00;100535.50;5112422;28;20475;-80
2022/04/05 04:37:16;;;;;;;52.20;20.40;;;;;;;8.21;100.00;100540.63;5111449;28;20420;-80
2022/04/05 04:39:42;;;;;;;52.72;19.67;;;;;;;8.18;100.00;100532.91;5112172;28;20020;-80
2022/04/05 04:42:07;;;;;;;61.25;20.65;;;;;;;8.20;100.00;100536.31;5112177;28;20126;-80
2022/04/05 04:44:32;;;;;;;52.42;18.83;;;;;;;8.19;100.00;100532.00;5111043;28;20028;-80
2022/04/05 04:46:58;;;;;;;59.72;20.35;;;;;;;8.20;100.00;100538.91;5111541;28;20023;-80
2022/04/05 04:49:24;;;;;;;48.47;18.48;;;;;;;8.23;100.00;100550.13;5111246;28;20039;-80
2022/04/05 04:51:49;;;;;;;48.17;19.00;;;;;;;8.22;100.00;100546.69;5110970;28;20028;-80
2022/04/05 04:54:14;;;;;;;52.03;19.23;;;;;;;8.21;100.00;100542.38;5112139;28;20115;-80
2022/04/05 04:56:40;;;;;;;52.78;19.70;;;;;;;8.21;100.00;100547.56;5111651;28;20020;-80
2022/04/05 04:59:05;;;;;;;47.25;18.58;;;;;;;8.15;100.00;100538.16;5111295;28;20511;-80
2022/04/05 05:01:30;;;;;;;49.22;19.60;;;;;;;8.21;100.00;100551.03;5110988;28;20432;-80
2022/04/05 05:03:56;;;;;;;47.85;18.73;;;;;;;8.23;100.00;100552.72;5110433;28;20056;-80
2022/04/05 05:06:21;;;;;;;53.38;18.92;;;;;;;8.18;100.00;100539.84;5111788;28;20026;-80
2022/04/05 05:08:46;;;;;;;53.22;18.80;;;;;;;8.17;100.00;100533.81;5111819;28;20027;-80
2022/04/05 05:11:11;;;;;;;58.47;18.77;;;;;;;8.23;100.00;100550.97;5110929;28;20031;-80
2022/04/05 05:13:37;;;;;;;50.38;18.30;;;;;;;8.21;100.00;100545.84;5111101;28;20036;-80
2022/04/05 05:16:03;;;;;;;46.58;17.70;;;;;;;8.23;100.00;100540.59;5111558;28;20081;-80
2022/04/05 05:18:28;;;;;;;46.05;17.48;;;;;;;8.24;100.00;100550.13;5110586;28;20059;-80
2022/04/05 05:20:54;;;;;;;45.63;18.05;;;;;;;8.17;100.00;100538.09;5111113;28;20031;-80
2022/04/05 05:23:19;;;;;;;50.90;18.48;;;;;;;8.20;100.00;100548.44;5111821;28;20153;-80
2022/04/05 05:25:46;;;;;;;39.20;16.52;;;;;;;8.25;100.00;100553.56;5115022;28;20475;-80
2022/04/05 05:28:11;;;;;;;44.80;18.73;;;;;;;8.24;100.00;100555.31;5115292;28;20039;-80
2022/04/05 05:30:37;;;;;;;46.75;19.05;;;;;;;8.21;100.00;100550.19;5115337;28;20024;-80
2022/04/05 05:33:02;;;;;;;43.22;17.08;;;;;;;8.25;100.00;100561.34;5114236;28;20027;-79
2022/04/05 05:35:28;;;;;;;48.40;17.98;;;;;;;8.26;100.00;100557.88;5115094;28;20031;-80
2022/04/05 05:37:56;;;;;;;46.70;18.35;;;;;;;8.26;100.00;100557.88;5115521;28;20051;-80
2022/04/05 05:40:22;;;;;;;44.60;17.88;;;;;;;8.25;100.00;100550.97;5114683;28;20046;-80
2022/04/05 05:42:57;;;;;;;45.42;19.30;;;;;;;8.24;100.00;100551.84;5115027;28;20470;-80
2022/04/05 05:45:24;;;;;;;52.28;18.85;;;;;;;8.25;100.00;100563.97;5115385;28;20027;-80
2022/04/05 05:47:49;;;;;;;53.13;20.35;;;;;;;8.27;100.00;100565.63;5114761;28;20102;-80
2022/04/05 05:50:15;;;;;;;52.92;20.80;;;;;;;8.26;100.00;100565.66;5115258;28;20123;-80
2022/04/05 05:52:42;;;;;;;57.97;21.15;;;;;;;8.24;100.00;100565.72;5115421;28;20072;-80
2022/04/05 05:55:09;;;;;;;62.88;20.30;;;;;;;8.26;100.00;100570.84;5114067;28;20055;-80
2022/04/05 05:57:36;;;;;;;55.13;20.08;;;;;;;8.27;100.00;100580.34;5115415;28;20094;-79
2022/04/05 06:00:06;;;;;;;53.97;21.60;;;;;;;8.28;100.00;100576.88;5114969;28;20023;-80
2022/04/05 06:02:32;;;;;;;60.22;21.80;;;;;;;8.28;100.00;100582.09;5094222;28;20020;-80
2022/04/05 06:04:57;;;;;;;64.43;21.98;;;;;;;8.29;100.00;100581.19;5094797;28;20035;-80
2022/04/05 06:07:22;;;;;;;58.60;21.67;;;;;;;8.24;100.00;100576.09;5099996;28;20034;-80
2022/04/05 06:09:47;;;;;;;61.17;22.20;;;;;;;8.31;100.00;100587.22;5114973;28;20012;-80
2022/04/05 06:12:13;;;;;;;59.13;22.00;;;;;;;8.27;100.00;100576.00;5114416;28;20028;-80
2022/04/05 06:14:38;;;;;;;61.97;23.05;;;;;;;8.29;100.00;100582.03;5113307;28;20099;-80
2022/04/05 06:17:03;;;;;;;56.40;22.08;;;;;;;8.26;100.00;100586.44;5115144;28;20108;-79
2022/04/05 06:19:28;;;;;;;62.80;22.77;;;;;;;8.25;100.00;100583.00;5114654;28;20039;-80
2022/04/05 06:21:54;;;;;;;64.78;23.25;;;;;;;8.19;100.00;100575.31;5114195;28;20073;-80
2022/04/05 06:24:19;;;;;;;56.70;22.63;;;;;;;8.26;100.00;100587.28;5114708;28;20012;-80
2022/04/05 06:26:44;;;;;;;57.92;21.80;;;;;;;8.28;100.00;100588.13;5114616;28;20020;-80
2022/04/05 06:29:10;;;;;;;54.38;21.90;;;;;;;8.30;100.00;100585.50;5113828;28;20028;-79
2022/04/05 06:31:35;;;;;;;62.65;20.77;;;;;;;8.30;100.00;100603.66;5114816;28;20042;-80
2022/04/05 06:34:02;;;;;;;50.85;20.42;;;;;;;8.28;100.00;100584.69;5114550;28;20043;-80
2022/04/05 06:36:28;;;;;;;52.28;20.25;;;;;;;8.26;100.00;100599.41;5112984;28;20015;-79
2022/04/05 06:38:53;;;;;;;49.95;19.67;;;;;;;8.29;100.00;100601.97;5114325;28;20031;-80
2022/04/05 06:41:20;;;;;;;46.90;18.75;;;;;;;8.29;100.00;100604.56;5114472;28;20055;-80
2022/04/05 06:43:45;;;;;;;48.45;18.83;;;;;;;8.32;100.00;100599.31;5113471;28;20034;-79
2022/04/05 06:46:10;;;;;;;45.30;17.65;;;;;;;8.36;100.00;100607.00;5114531;28;20099;-80
2022/04/05 06:48:36;;;;;;;48.45;17.95;;;;;;;8.42;100.00;100600.91;5114369;28;20429;-80
2022/04/05 06:51:01;;;;;;;48.55;17.98;;;;;;;8.39;100.00;100606.13;5113699;28;20070;-80
2022/04/05 06:53:26;;;;;;;43.80;18.83;;;;;;;8.42;100.00;100611.28;5114014;28;20119;-80
2022/04/05 06:55:52;;;;;;;40.47;16.67;;;;;;;8.47;100.00;100609.47;5114098;28;20031;-79
2022/04/05 06:58:17;;;;;;;43.85;17.00;;;;;;;8.46;100.00;100612.09;5113148;28;20524;-80
2022/04/05 07:00:42;;;;;;;40.05;16.40;;;;;;;8.44;100.00;100610.38;5128169;27;20042;-79
2022/04/05 07:03:07;;;;;;;36.10;15.82;;;;;;;8.47;100.00;100614.66;5135067;27;20115;-79
2022/04/05 07:05:33;;;;;;;35.47;15.02;;;;;;;8.47;100.00;100618.97;5133795;27;20058;-79
2022/04/05 07:07:59;;;;;;;37.03;14.77;;;;;;;8.48;100.00;100616.38;5134623;27;20027;-79
2022/04/05 07:10:24;;;;;;;35.55;14.88;;;;;;;8.50;100.00;100616.31;5134327;27;20030;-79
2022/04/05 07:12:50;;;;;;;37.15;14.60;;;;;;;8.48;100.00;100613.78;5133656;27;20023;-79
2022/04/05 07:15:16;;;;;;;32.63;15.10;;;;;;;8.48;100.00;100618.97;5132794;27;20079;-79
2022/04/05 07:17:43;;;;;;;36.17;14.32;;;;;;;8.48;100.00;100626.75;5133565;27;20015;-79
2022/04/05 07:20:10;;;;;;;35.15;13.75;;;;;;;8.50;100.00;100635.41;5134523;27;20023;-79
2022/04/05 07:22:36;;;;;;;28.88;13.00;;;;;;;8.50;100.00;100618.94;5134267;27;20031;-79
2022/04/05 07:25:03;;;;;;;30.50;13.63;;;;;;;8.49;100.00;100625.88;5133588;27;20034;-79
2022/04/05 07:27:29;;;;;;;29.30;12.80;;;;;;;8.47;100.00;100618.97;5133812;27;20023;-79
2022/04/05 07:29:54;;;;;;;28.13;13.35;;;;;;;8.46;100.00;100617.28;5131344;27;20041;-80
2022/04/05 07:32:19;;;;;;;33.88;12.77;;;;;;;8.49;100.00;100612.88;5112824;28;20076;-80
2022/04/05 07:34:45;;;;;;;36.28;12.90;;;;;;;8.50;100.00;100608.53;5113180;27;20035;-79
2022/04/05 07:37:11;;;;;;;29.13;12.38;;;;;;;8.52;100.00;100607.63;5113287;28;20024;-79
2022/04/05 07:39:38;;;;;;;27.17;12.48;;;;;;;8.53;100.00;100611.94;5112412;27;20054;-79
2022/04/05 07:42:03;;;;;;;30.27;11.98;;;;;;;8.53;100.00;100608.47;5113449;28;20039;-79
2022/04/05 07:44:28;;;;;;;28.35;12.52;;;;;;;8.55;100.00;100612.75;5112935;28;20262;-79
2022/04/05 07:46:54;;;;;;;31.27;12.68;;;;;;;8.61;100.00;100607.47;5113331;27;20084;-79
2022/04/05 07:49:19;;;;;;;28.95;12.95;;;;;;;8.65;100.00;100610.84;5112709;28;20058;-79
2022/04/05 07:51:44;;;;;;;25.35;12.27;;;;;;;8.67;100.00;100615.13;5113079;28;20030;-79
2022/04/05 07:54:10;;;;;;;28.23;11.68;;;;;;;8.67;100.00;100609.09;5112191;28;20083;-79
2022/04/05 07:56:35;;;;;;;21.15;10.95;;;;;;;8.66;100.00;100609.97;5118537;27;20122;-79
2022/04/05 07:59:02;;;;;;;26.75;11.13;;;;;;;8.68;100.00;100614.25;5118330;27;20020;-79
2022/04/05 08:01:29;;;;;;;25.10;12.02;;;;;;;8.73;100.00;100627.16;5113205;27;20028;-78
2022/04/05 08:03:55;;;;;;;24.33;10.88;;;;;;;8.72;100.00;100607.25;5128493;27;20096;-79
2022/04/05 08:06:20;;;;;;;22.88;11.40;;;;;;;8.71;100.00;100620.28;5131551;27;20040;-79
2022/04/05 08:08:46;;;;;;;26.50;10.95;;;;;;;8.71;100.00;100621.13;5132457;27;20031;-78
2022/04/05 08:11:11;;;;;;;21.20;10.60;;;;;;;8.75;100.00;100614.13;5133017;27;20551;-79
2022/04/05 08:13:36;;;;;;;25.30;11.40;;;;;;;8.75;100.00;100622.78;5133008;27;20022;-79
2022/04/05 08:16:01;;;;;;;27.65;11.63;;;;;;;8.78;100.00;100612.31;5126826;27;20028;-79
2022/04/05 08:18:27;;;;;;;23.73;10.98;;;;;;;8.79;100.00;100627.03;5130099;27;20637;-79
2022/04/05 08:20:52;;;;;;;20.20;10.40;;;;;;;8.79;100.00;100615.78;5111995;27;20031;-81
2022/04/05 08:23:17;;;;;;;27.02;11.27;;;;;;;8.83;100.00;100622.66;5128905;27;20467;-79
2022/04/05 08:25:43;;;;;;;23.73;10.30;;;;;;;8.87;100.00;100629.50;5132567;27;20019;-78
2022/04/05 08:28:08;;;;;;;23.50;10.65;;;;;;;8.93;100.00;100633.69;5132557;27;20034;-79
2022/04/05 08:30:33;;;;;;;20.60;10.02;;;;;;;8.95;100.00;100631.94;5132991;27;20076;-79
2022/04/05 08:32:59;;;;;;;19.48;10.00;;;;;;;8.94;100.00;100625.03;5132888;27;20123;-79
2022/04/05 08:35:24;;;;;;;23.30;10.23;;;;;;;8.97;100.00;100628.41;5130181;27;20023;-78
2022/04/05 08:37:52;;;;;;;20.13;10.25;;;;;;;8.96;100.00;100618.91;5132731;27;20023;-78
2022/04/05 08:40:19;;;;;;;19.48;10.02;;;;;;;9.00;100.00;100633.56;5116747;27;20028;-79
2022/04/05 08:42:47;;;;;;;17.42;9.98;;;;;;;9.02;100.00;100639.56;5111407;28;20054;-78
2022/04/05 08:45:14;;;;;;;20.02;10.23;;;;;;;9.09;100.00;100630.78;5112139;28;20152;-79
2022/04/05 08:47:48;;;;;;;18.88;10.68;;;;;;;9.21;100.00;100624.44;5113095;27;20039;-78
2022/04/05 08:50:15;;;;;;;22.45;10.70;;;;;;;9.17;100.00;100627.16;5111012;28;20055;-78
2022/04/05 08:52:43;;;;;;;18.80;10.45;;;;;;;9.19;100.00;100631.44;5111779;28;20051;-78
2022/04/05 08:55:08;;;;;;;15.35;10.50;;;;;;;9.18;100.00;100634.06;5113284;28;20024;-78
2022/04/05 08:57:34;;;;;;;21.00;10.75;;;;;;;9.23;100.00;100634.84;5111163;28;20099;-79
2022/04/05 09:00:00;;;;;;;21.58;11.00;;;;;;;9.20;100.00;100642.69;5111457;28;20031;-78
2022/04/05 09:02:27;;;;;;;20.05;11.65;;;;;;;9.17;100.00;100628.00;5112839;28;20023;-79
2022/04/05 09:04:52;;;;;;;18.67;11.23;;;;;;;9.26;100.00;100632.16;5111088;28;20080;-78
2022/04/05 09:07:22;;;;;;;18.90;12.50;;;;;;;9.33;100.00;100639.78;5111883;28;20015;-78
2022/04/05 09:10:07;;;;;;;21.65;11.98;;;;;;;9.35;100.00;100643.22;5111792;28;20496;-78
2022/04/05 09:12:41;;;;;;;17.48;11.73;;;;;;;9.36;100.00;100644.09;5112017;28;20028;-78
2022/04/05 09:15:25;;;;;;;22.83;12.02;;;;;;;9.43;100.00;100648.25;5111966;28;20550;-78
2022/04/05 09:17:52;;;;;;;20.63;12.77;;;;;;;9.57;100.00;100656.59;5121351;28;20019;-78
2022/04/05 09:20:18;;;;;;;21.55;13.35;;;;;;;9.68;100.00;100647.69;5132391;27;20034;-78
2022/04/05 09:22:44;;;;;;;20.15;12.02;;;;;;;9.63;100.00;100646.97;5132302;27;20080;-79
2022/04/05 09:25:12;;;;;;;18.17;11.60;;;;;;;9.57;100.00;100648.81;5131581;27;20394;-78
2022/04/05 09:27:55;;;;;;;19.60;11.63;;;;;;;9.57;100.00;100654.00;5132037;27;20031;-78
2022/04/05 09:30:33;;;;;;;22.83;11.38;;;;;;;9.60;100.00;100653.09;5131763;27;20106;-78
2022/04/05 09:32:59;;;;;;;18.23;12.15;;;;;;;9.65;100.00;100656.47;5129816;27;20076;-78
2022/04/05 09:35:39;;;;;;;17.30;12.02;;;;;;;9.63;100.00;100662.56;5132061;27;20030;-78
2022/04/05 09:38:16;;;;;;;19.73;12.73;;;;;;;9.67;100.00;100654.66;5115305;27;20107;-79
2022/04/05 09:40:42;;;;;;;24.30;12.60;;;;;;;9.77;100.00;100663.97;5112291;28;20072;-79
2022/04/05 09:43:15;;;;;;;23.63;12.88;;;;;;;9.75;100.00;100659.72;5112053;28;20030;-78
2022/04/05 09:45:58;;;;;;;21.25;12.30;;;;;;;9.77;100.00;100665.72;5110767;28;20153;-79
2022/04/05 09:48:26;;;;;;;21.73;12.93;;;;;;;9.84;100.00;100664.69;5111472;28;20036;-79
2022/04/05 09:51:05;;;;;;;20.85;13.57;;;;;;;9.89;100.00;100670.66;5111312;28;20131;-79
2022/04/05 09:53:43;;;;;;;22.52;13.60;;;;;;;9.90;100.00;100658.47;5111787;28;20035;-78
2022/04/05 09:56:13;;;;;;;18.90;12.95;;;;;;;9.86;100.00;100662.91;5111145;28;20072;-79
2022/04/05 09:58:48;;;;;;;18.80;12.02;;;;;;;9.77;100.00;100661.34;5110254;28;20032;-79
2022/04/05 10:01:15;;;;;;;19.98;13.23;;;;;;;9.79;100.00;100658.75;5109953;28;20031;-79
2022/04/05 10:03:56;;;;;;;20.48;12.73;;;;;;;9.77;100.00;100663.13;5111148;28;20164;-79
2022/04/05 10:06:21;;;;;;;22.67;12.73;;;;;;;9.84;100.00;100667.28;5110707;28;20028;-79
2022/04/05 10:08:48;;;;;;;20.17;13.02;;;;;;;9.83;100.00;100660.38;5112540;28;20027;-79
2022/04/05 10:11:13;;;;;;;21.85;13.43;;;;;;;9.87;100.00;100662.00;5113460;27;20386;-79
2022/04/05 10:13:39;;;;;;;18.75;12.60;;;;;;;9.88;100.00;100662.88;5124799;27;20352;-79
2022/04/05 10:16:05;;;;;;;24.48;13.80;;;;;;;10.04;100.00;100666.84;5114992;28;20430;-79
2022/04/05 10:18:32;;;;;;;19.40;12.13;;;;;;;10.16;100.00;100669.13;5115020;28;20036;-79
2022/04/05 10:20:58;;;;;;;17.75;10.80;;;;;;;10.31;100.00;100668.78;5105000;28;20035;-79
2022/04/05 10:23:24;;;;;;;20.70;12.07;;;;;;;10.42;100.00;100668.50;5105133;28;20027;-79
2022/04/05 10:25:52;;;;;;;19.33;10.98;;;;;;;10.49;100.00;100669.19;5102969;28;20076;-79
2022/04/05 10:28:22;;;;;;;18.45;11.10;;;;;;;10.59;100.00;100672.44;5111071;28;20096;-79
2022/04/05 10:31:19;;;;;;;13.88;8.98;;;;;;;10.62;100.00;100667.97;5114425;28;20023;-79
2022/04/05 10:34:14;;;;;;;15.93;8.85;;;;;;;10.47;100.00;100668.41;5088815;28;20116;-79
2022/04/05 10:36:40;;;;;;;13.57;8.40;;;;;;;10.35;100.00;100660.91;5111857;27;20031;-79
2022/04/05 10:39:18;;;;;;;13.27;8.32;;;;;;;10.32;100.00;100661.81;5114469;28;20112;-79
2022/04/05 10:42:04;;;;;;;15.63;8.82;;;;;;;10.48;100.00;100664.91;5113404;28;20479;-80
2022/04/05 10:44:29;;;;;;;14.00;9.70;;;;;;;10.61;100.00;100661.06;5114018;27;20027;-79
2022/04/05 10:46:59;;;;;;;15.02;8.77;;;;;;;10.69;100.00;100655.63;5114127;28;20043;-80
2022/04/05 10:49:35;;;;;;;13.70;8.70;;;;;;;10.71;100.00;100662.53;5113067;27;20126;-79
2022/04/05 10:52:10;;;;;;;9.52;7.68;;;;;;;10.73;100.00;100660.75;5115137;27;20498;-79
2022/04/05 10:54:44;;;;;;;13.18;8.15;;;;;;;10.60;100.00;100658.53;5113659;28;20027;-80
2022/04/05 10:57:21;;;;;;;9.95;6.22;;;;;;;10.48;100.00;100651.88;5112791;28;20031;-79
2022/04/05 10:59:54;;;;;;;9.60;6.30;;;;;;;10.38;100.00;100666.88;5115118;27;20562;-79
2022/04/05 11:02:28;;;;;;;11.27;7.40;;;;;;;10.48;100.00;100664.91;5114093;28;20020;-79
2022/04/05 11:05:04;;;;;;;10.77;6.80;;;;;;;10.55;100.00;100654.25;5113371;28;20027;-79
2022/04/05 11:07:52;;;;;;;9.88;6.90;;;;;;;10.49;100.00;100662.22;5113948;28;20042;-79
2022/04/05 11:10:41;;;;;;;7.78;6.22;;;;;;;10.61;100.00;100660.22;5113025;28;20493;-80